sensor_id;sensor_type;location;lat;lon;timestamp;P1;durP1;ratioP1;P2;durP2;ratioP2
52614;SDS011;38508;53.158;6.614;2022-09-01T00:01:45;3.78;;;0.70;;
52614;SDS011;38508;53.158;6.614;2022-09-01T00:04:14;2.30;;;0.70;;
52614;SDS011;38508;53.158;6.614;2022-09-01T00:06:43;2.97;;;0.65;;
52614;SDS011;38508;53.158;6.614;2022-09-01T00:09:12;2.97;;;0.70;;
52614;SDS011;38508;53.158;6.614;2022-09-01T00:11:40;3.55;;;0.80;;
52614;SDS011;38508;53.158;6.614;2022-09-01T00:14:07;2.75;;;0.70;;
52614;SDS011;38508;53.158;6.614;2022-09-01T00:16:34;3.10;;;0.95;;
52614;SDS011;38508;53.158;6.614;2022-09-01T00:19:00;1.42;;;0.70;;
52614;SDS011;38508;53.158;6.614;2022-09-01T00:21:28;1.67;;;0.80;;
52614;SDS011;38508;53.158;6.614;2022-09-01T00:23:58;2.10;;;1.00;;
52614;SDS011;38508;53.158;6.614;2022-09-01T00:26:25;0.90;;;0.50;;
52614;SDS011;38508;53.158;6.614;2022-09-01T00:28:51;2.20;;;0.90;;
52614;SDS011;38508;53.158;6.614;2022-09-01T00:31:17;1.95;;;1.20;;
52614;SDS011;38508;53.158;6.614;2022-09-01T00:33:44;1.83;;;0.82;;
52614;SDS011;38508;53.158;6.614;2022-09-01T00:36:10;1.83;;;1.17;;
52614;SDS011;38508;53.158;6.614;2022-09-01T00:38:37;1.20;;;0.80;;
52614;SDS011;38508;53.158;6.614;2022-09-01T00:41:03;1.67;;;0.80;;
52614;SDS011;38508;53.158;6.614;2022-09-01T00:43:43;3.40;;;1.10;;
52614;SDS011;38508;53.158;6.614;2022-09-01T00:46:11;1.33;;;0.90;;
52614;SDS011;38508;53.158;6.614;2022-09-01T00:48:39;2.20;;;1.20;;
52614;SDS011;38508;53.158;6.614;2022-09-01T00:51:06;1.77;;;0.95;;
52614;SDS011;38508;53.158;6.614;2022-09-01T00:53:33;4.10;;;1.25;;
52614;SDS011;38508;53.158;6.614;2022-09-01T00:56:00;1.95;;;0.95;;
52614;SDS011;38508;53.158;6.614;2022-09-01T00:58:27;1.65;;;0.80;;
52614;SDS011;38508;53.158;6.614;2022-09-01T01:00:54;2.50;;;1.05;;
52614;SDS011;38508;53.158;6.614;2022-09-01T01:03:20;2.83;;;0.93;;
52614;SDS011;38508;53.158;6.614;2022-09-01T01:05:53;2.35;;;1.20;;
52614;SDS011;38508;53.158;6.614;2022-09-01T01:08:28;2.15;;;0.90;;
52614;SDS011;38508;53.158;6.614;2022-09-01T01:10:58;1.65;;;0.90;;
52614;SDS011;38508;53.158;6.614;2022-09-01T01:13:25;1.60;;;0.90;;
52614;SDS011;38508;53.158;6.614;2022-09-01T01:15:52;1.10;;;0.70;;
52614;SDS011;38508;53.158;6.614;2022-09-01T01:18:17;1.50;;;0.98;;
52614;SDS011;38508;53.158;6.614;2022-09-01T01:20:43;2.10;;;0.70;;
52614;SDS011;38508;53.158;6.614;2022-09-01T01:26:32;1.23;;;0.73;;
52614;SDS011;38508;53.158;6.614;2022-09-01T01:28:57;1.52;;;1.00;;
52614;SDS011;38508;53.158;6.614;2022-09-01T01:31:26;1.88;;;1.00;;
52614;SDS011;38508;53.158;6.614;2022-09-01T01:33:53;1.60;;;0.90;;
52614;SDS011;38508;53.158;6.614;2022-09-01T01:36:22;1.65;;;0.90;;
52614;SDS011;38508;53.158;6.614;2022-09-01T01:38:57;1.67;;;0.90;;
52614;SDS011;38508;53.158;6.614;2022-09-01T01:41:26;1.50;;;0.90;;
52614;SDS011;38508;53.158;6.614;2022-09-01T01:43:54;4.75;;;0.90;;
52614;SDS011;38508;53.158;6.614;2022-09-01T01:46:22;2.92;;;0.93;;
52614;SDS011;38508;53.158;6.614;2022-09-01T01:48:49;2.63;;;1.20;;
52614;SDS011;38508;53.158;6.614;2022-09-01T01:51:17;2.88;;;1.30;;
52614;SDS011;38508;53.158;6.614;2022-09-01T01:53:45;5.82;;;1.50;;
52614;SDS011;38508;53.158;6.614;2022-09-01T01:56:12;2.35;;;1.50;;
52614;SDS011;38508;53.158;6.614;2022-09-01T01:58:38;3.97;;;1.50;;
52614;SDS011;38508;53.158;6.614;2022-09-01T02:01:05;3.05;;;1.90;;
52614;SDS011;38508;53.158;6.614;2022-09-01T02:03:32;6.05;;;2.10;;
52614;SDS011;38508;53.158;6.614;2022-09-01T02:06:03;4.35;;;2.00;;
52614;SDS011;38508;53.158;6.614;2022-09-01T02:08:32;4.38;;;2.45;;
52614;SDS011;38508;53.158;6.614;2022-09-01T02:11:00;4.40;;;1.98;;
52614;SDS011;38508;53.158;6.614;2022-09-01T02:13:26;3.03;;;2.22;;
52614;SDS011;38508;53.158;6.614;2022-09-01T02:15:56;2.72;;;1.70;;
52614;SDS011;38508;53.158;6.614;2022-09-01T02:18:30;2.60;;;1.83;;
52614;SDS011;38508;53.158;6.614;2022-09-01T02:20:59;2.97;;;1.80;;
52614;SDS011;38508;53.158;6.614;2022-09-01T02:23:26;3.85;;;1.65;;
52614;SDS011;38508;53.158;6.614;2022-09-01T02:25:54;2.25;;;1.40;;
52614;SDS011;38508;53.158;6.614;2022-09-01T02:28:24;2.47;;;1.52;;
52614;SDS011;38508;53.158;6.614;2022-09-01T02:30:52;2.95;;;1.60;;
52614;SDS011;38508;53.158;6.614;2022-09-01T02:33:22;3.28;;;1.45;;
52614;SDS011;38508;53.158;6.614;2022-09-01T02:35:50;3.78;;;1.50;;
52614;SDS011;38508;53.158;6.614;2022-09-01T02:38:18;3.17;;;1.48;;
52614;SDS011;38508;53.158;6.614;2022-09-01T02:40:45;2.53;;;1.40;;
52614;SDS011;38508;53.158;6.614;2022-09-01T02:43:12;1.90;;;1.13;;
52614;SDS011;38508;53.158;6.614;2022-09-01T02:45:44;1.73;;;1.17;;
52614;SDS011;38508;53.158;6.614;2022-09-01T02:48:20;2.10;;;1.17;;
52614;SDS011;38508;53.158;6.614;2022-09-01T02:50:49;1.60;;;0.95;;
52614;SDS011;38508;53.158;6.614;2022-09-01T02:53:15;2.60;;;1.10;;
52614;SDS011;38508;53.158;6.614;2022-09-01T02:55:41;3.10;;;1.20;;
52614;SDS011;38508;53.158;6.614;2022-09-01T02:58:08;2.17;;;1.00;;
52614;SDS011;38508;53.158;6.614;2022-09-01T03:00:40;1.35;;;1.00;;
52614;SDS011;38508;53.158;6.614;2022-09-01T03:03:07;2.28;;;1.33;;
52614;SDS011;38508;53.158;6.614;2022-09-01T03:05:33;1.95;;;1.00;;
52614;SDS011;38508;53.158;6.614;2022-09-01T03:08:05;1.92;;;1.30;;
52614;SDS011;38508;53.158;6.614;2022-09-01T03:10:35;1.75;;;1.00;;
52614;SDS011;38508;53.158;6.614;2022-09-01T03:13:15;2.58;;;1.27;;
52614;SDS011;38508;53.158;6.614;2022-09-01T03:15:45;2.75;;;1.35;;
52614;SDS011;38508;53.158;6.614;2022-09-01T03:18:11;1.20;;;0.90;;
52614;SDS011;38508;53.158;6.614;2022-09-01T03:20:39;2.92;;;1.30;;
52614;SDS011;38508;53.158;6.614;2022-09-01T03:23:11;3.38;;;1.13;;
52614;SDS011;38508;53.158;6.614;2022-09-01T03:25:40;1.50;;;1.10;;
52614;SDS011;38508;53.158;6.614;2022-09-01T03:28:07;2.63;;;1.35;;
52614;SDS011;38508;53.158;6.614;2022-09-01T03:30:34;3.33;;;1.60;;
52614;SDS011;38508;53.158;6.614;2022-09-01T03:33:04;3.03;;;1.35;;
52614;SDS011;38508;53.158;6.614;2022-09-01T03:35:30;4.38;;;1.30;;
52614;SDS011;38508;53.158;6.614;2022-09-01T03:37:56;1.48;;;1.02;;
52614;SDS011;38508;53.158;6.614;2022-09-01T03:40:27;4.75;;;1.27;;
52614;SDS011;38508;53.158;6.614;2022-09-01T03:42:59;2.08;;;1.13;;
52614;SDS011;38508;53.158;6.614;2022-09-01T03:45:25;2.60;;;1.58;;
52614;SDS011;38508;53.158;6.614;2022-09-01T03:47:52;2.83;;;1.50;;
52614;SDS011;38508;53.158;6.614;2022-09-01T03:50:20;3.25;;;1.30;;
52614;SDS011;38508;53.158;6.614;2022-09-01T03:52:54;5.30;;;1.27;;
52614;SDS011;38508;53.158;6.614;2022-09-01T03:55:23;3.53;;;1.50;;
52614;SDS011;38508;53.158;6.614;2022-09-01T03:57:55;2.53;;;1.27;;
52614;SDS011;38508;53.158;6.614;2022-09-01T04:00:25;1.70;;;1.38;;
52614;SDS011;38508;53.158;6.614;2022-09-01T04:02:54;3.17;;;1.50;;
52614;SDS011;38508;53.158;6.614;2022-09-01T04:05:23;1.83;;;1.20;;
52614;SDS011;38508;53.158;6.614;2022-09-01T04:07:53;2.10;;;1.30;;
52614;SDS011;38508;53.158;6.614;2022-09-01T04:10:23;2.05;;;1.30;;
52614;SDS011;38508;53.158;6.614;2022-09-01T04:12:49;3.03;;;1.58;;
52614;SDS011;38508;53.158;6.614;2022-09-01T04:15:15;2.65;;;1.48;;
52614;SDS011;38508;53.158;6.614;2022-09-01T04:17:43;2.03;;;1.20;;
52614;SDS011;38508;53.158;6.614;2022-09-01T04:20:27;3.30;;;2.00;;
52614;SDS011;38508;53.158;6.614;2022-09-01T04:22:53;4.18;;;1.48;;
52614;SDS011;38508;53.158;6.614;2022-09-01T04:25:20;2.67;;;1.27;;
52614;SDS011;38508;53.158;6.614;2022-09-01T04:27:52;4.57;;;1.67;;
52614;SDS011;38508;53.158;6.614;2022-09-01T04:30:21;1.48;;;1.23;;
52614;SDS011;38508;53.158;6.614;2022-09-01T04:32:51;1.70;;;1.27;;
52614;SDS011;38508;53.158;6.614;2022-09-01T04:35:19;3.75;;;1.70;;
52614;SDS011;38508;53.158;6.614;2022-09-01T04:37:45;2.47;;;1.52;;
52614;SDS011;38508;53.158;6.614;2022-09-01T04:40:12;2.65;;;1.40;;
52614;SDS011;38508;53.158;6.614;2022-09-01T04:42:38;2.42;;;1.33;;
52614;SDS011;38508;53.158;6.614;2022-09-01T04:45:05;1.65;;;1.30;;
52614;SDS011;38508;53.158;6.614;2022-09-01T04:47:34;2.67;;;1.38;;
52614;SDS011;38508;53.158;6.614;2022-09-01T04:50:02;2.53;;;1.52;;
52614;SDS011;38508;53.158;6.614;2022-09-01T04:52:37;4.45;;;1.77;;
52614;SDS011;38508;53.158;6.614;2022-09-01T04:55:05;3.47;;;1.60;;
52614;SDS011;38508;53.158;6.614;2022-09-01T04:57:32;4.93;;;1.77;;
52614;SDS011;38508;53.158;6.614;2022-09-01T04:59:59;4.07;;;1.75;;
52614;SDS011;38508;53.158;6.614;2022-09-01T05:02:25;2.45;;;1.50;;
52614;SDS011;38508;53.158;6.614;2022-09-01T05:04:53;2.78;;;1.90;;
52614;SDS011;38508;53.158;6.614;2022-09-01T05:07:22;2.65;;;1.83;;
52614;SDS011;38508;53.158;6.614;2022-09-01T05:09:48;2.00;;;1.50;;
52614;SDS011;38508;53.158;6.614;2022-09-01T05:12:13;3.95;;;1.80;;
52614;SDS011;38508;53.158;6.614;2022-09-01T05:14:42;2.10;;;1.58;;
52614;SDS011;38508;53.158;6.614;2022-09-01T05:17:11;3.10;;;1.85;;
52614;SDS011;38508;53.158;6.614;2022-09-01T05:19:38;2.67;;;1.73;;
52614;SDS011;38508;53.158;6.614;2022-09-01T05:22:05;2.38;;;1.83;;
52614;SDS011;38508;53.158;6.614;2022-09-01T05:24:33;2.33;;;1.67;;
52614;SDS011;38508;53.158;6.614;2022-09-01T05:26:59;2.97;;;2.08;;
52614;SDS011;38508;53.158;6.614;2022-09-01T05:29:25;3.35;;;2.00;;
52614;SDS011;38508;53.158;6.614;2022-09-01T05:31:53;3.08;;;2.10;;
52614;SDS011;38508;53.158;6.614;2022-09-01T05:34:20;5.40;;;1.80;;
52614;SDS011;38508;53.158;6.614;2022-09-01T05:36:56;4.18;;;1.80;;
52614;SDS011;38508;53.158;6.614;2022-09-01T05:39:24;6.88;;;2.35;;
52614;SDS011;38508;53.158;6.614;2022-09-01T05:41:51;5.05;;;2.03;;
52614;SDS011;38508;53.158;6.614;2022-09-01T05:44:17;4.30;;;2.17;;
52614;SDS011;38508;53.158;6.614;2022-09-01T05:46:46;4.65;;;2.03;;
52614;SDS011;38508;53.158;6.614;2022-09-01T05:49:13;2.20;;;1.83;;
52614;SDS011;38508;53.158;6.614;2022-09-01T05:51:47;4.47;;;1.90;;
52614;SDS011;38508;53.158;6.614;2022-09-01T05:54:17;4.25;;;1.90;;
52614;SDS011;38508;53.158;6.614;2022-09-01T05:56:47;2.50;;;1.80;;
52614;SDS011;38508;53.158;6.614;2022-09-01T05:59:13;9.50;;;2.28;;
52614;SDS011;38508;53.158;6.614;2022-09-01T06:01:40;3.60;;;1.98;;
52614;SDS011;38508;53.158;6.614;2022-09-01T06:04:06;5.55;;;1.60;;
52614;SDS011;38508;53.158;6.614;2022-09-01T06:06:36;5.40;;;1.92;;
52614;SDS011;38508;53.158;6.614;2022-09-01T06:09:10;4.47;;;1.52;;
52614;SDS011;38508;53.158;6.614;2022-09-01T06:11:37;5.95;;;1.60;;
52614;SDS011;38508;53.158;6.614;2022-09-01T06:14:05;3.65;;;1.55;;
52614;SDS011;38508;53.158;6.614;2022-09-01T06:16:32;1.90;;;1.45;;
52614;SDS011;38508;53.158;6.614;2022-09-01T06:19:00;5.82;;;1.52;;
52614;SDS011;38508;53.158;6.614;2022-09-01T06:21:26;1.70;;;1.25;;
52614;SDS011;38508;53.158;6.614;2022-09-01T06:23:53;1.75;;;1.23;;
52614;SDS011;38508;53.158;6.614;2022-09-01T06:26:21;2.22;;;1.60;;
52614;SDS011;38508;53.158;6.614;2022-09-01T06:28:59;2.10;;;1.38;;
52614;SDS011;38508;53.158;6.614;2022-09-01T06:31:29;3.58;;;1.63;;
52614;SDS011;38508;53.158;6.614;2022-09-01T06:33:59;4.13;;;1.98;;
52614;SDS011;38508;53.158;6.614;2022-09-01T06:36:26;3.83;;;1.70;;
52614;SDS011;38508;53.158;6.614;2022-09-01T06:38:53;4.88;;;2.13;;
52614;SDS011;38508;53.158;6.614;2022-09-01T06:41:19;3.15;;;1.92;;
52614;SDS011;38508;53.158;6.614;2022-09-01T06:43:48;5.80;;;2.00;;
52614;SDS011;38508;53.158;6.614;2022-09-01T06:46:18;5.05;;;2.28;;
52614;SDS011;38508;53.158;6.614;2022-09-01T06:48:45;3.38;;;1.98;;
52614;SDS011;38508;53.158;6.614;2022-09-01T06:51:12;3.03;;;2.22;;
52614;SDS011;38508;53.158;6.614;2022-09-01T06:53:44;3.22;;;2.20;;
52614;SDS011;38508;53.158;6.614;2022-09-01T06:56:15;4.30;;;2.40;;
52614;SDS011;38508;53.158;6.614;2022-09-01T06:58:42;2.38;;;1.92;;
52614;SDS011;38508;53.158;6.614;2022-09-01T07:01:12;6.18;;;2.30;;
52614;SDS011;38508;53.158;6.614;2022-09-01T07:03:42;3.08;;;1.92;;
52614;SDS011;38508;53.158;6.614;2022-09-01T07:06:08;2.67;;;1.70;;
52614;SDS011;38508;53.158;6.614;2022-09-01T07:08:35;4.72;;;1.80;;
52614;SDS011;38508;53.158;6.614;2022-09-01T07:11:04;3.22;;;2.13;;
52614;SDS011;38508;53.158;6.614;2022-09-01T07:13:41;4.65;;;2.30;;
52614;SDS011;38508;53.158;6.614;2022-09-01T07:16:15;4.45;;;2.20;;
52614;SDS011;38508;53.158;6.614;2022-09-01T07:18:44;2.97;;;1.90;;
52614;SDS011;38508;53.158;6.614;2022-09-01T07:21:09;3.85;;;1.67;;
52614;SDS011;38508;53.158;6.614;2022-09-01T07:23:35;2.50;;;1.85;;
52614;SDS011;38508;53.158;6.614;2022-09-01T07:26:04;3.63;;;1.73;;
52614;SDS011;38508;53.158;6.614;2022-09-01T07:28:31;6.72;;;1.95;;
52614;SDS011;38508;53.158;6.614;2022-09-01T07:30:57;4.45;;;2.17;;
52614;SDS011;38508;53.158;6.614;2022-09-01T07:33:24;2.05;;;1.60;;
52614;SDS011;38508;53.158;6.614;2022-09-01T07:35:51;4.50;;;1.50;;
52614;SDS011;38508;53.158;6.614;2022-09-01T07:38:19;2.28;;;1.50;;
52614;SDS011;38508;53.158;6.614;2022-09-01T07:40:46;3.50;;;1.60;;
52614;SDS011;38508;53.158;6.614;2022-09-01T07:43:31;3.53;;;1.35;;
52614;SDS011;38508;53.158;6.614;2022-09-01T07:45:58;3.10;;;1.30;;
52614;SDS011;38508;53.158;6.614;2022-09-01T07:48:24;3.70;;;1.73;;
52614;SDS011;38508;53.158;6.614;2022-09-01T07:50:53;2.13;;;1.13;;
52614;SDS011;38508;53.158;6.614;2022-09-01T07:53:27;2.58;;;1.33;;
52614;SDS011;38508;53.158;6.614;2022-09-01T07:55:55;2.95;;;1.30;;
52614;SDS011;38508;53.158;6.614;2022-09-01T07:58:24;1.95;;;1.38;;
52614;SDS011;38508;53.158;6.614;2022-09-01T08:00:52;2.45;;;1.10;;
52614;SDS011;38508;53.158;6.614;2022-09-01T08:03:20;2.63;;;1.23;;
52614;SDS011;38508;53.158;6.614;2022-09-01T08:05:48;4.05;;;1.45;;
52614;SDS011;38508;53.158;6.614;2022-09-01T08:08:18;4.57;;;1.52;;
52614;SDS011;38508;53.158;6.614;2022-09-01T08:10:44;3.58;;;1.27;;
52614;SDS011;38508;53.158;6.614;2022-09-01T08:13:11;2.13;;;1.33;;
52614;SDS011;38508;53.158;6.614;2022-09-01T08:15:38;6.05;;;1.60;;
52614;SDS011;38508;53.158;6.614;2022-09-01T08:18:04;2.95;;;1.30;;
52614;SDS011;38508;53.158;6.614;2022-09-01T08:20:30;2.55;;;1.70;;
52614;SDS011;38508;53.158;6.614;2022-09-01T08:22:59;5.00;;;1.45;;
52614;SDS011;38508;53.158;6.614;2022-09-01T08:25:25;1.73;;;1.10;;
52614;SDS011;38508;53.158;6.614;2022-09-01T08:27:53;3.67;;;1.27;;
52614;SDS011;38508;53.158;6.614;2022-09-01T08:30:18;3.17;;;1.20;;
52614;SDS011;38508;53.158;6.614;2022-09-01T08:32:44;4.50;;;1.58;;
52614;SDS011;38508;53.158;6.614;2022-09-01T08:35:11;2.78;;;1.30;;
52614;SDS011;38508;53.158;6.614;2022-09-01T08:37:40;2.22;;;1.10;;
52614;SDS011;38508;53.158;6.614;2022-09-01T08:40:07;2.60;;;1.30;;
52614;SDS011;38508;53.158;6.614;2022-09-01T08:42:43;3.95;;;1.38;;
52614;SDS011;38508;53.158;6.614;2022-09-01T08:45:20;2.20;;;1.15;;
52614;SDS011;38508;53.158;6.614;2022-09-01T08:48:13;2.22;;;1.23;;
52614;SDS011;38508;53.158;6.614;2022-09-01T08:55:57;2.28;;;1.17;;
52614;SDS011;38508;53.158;6.614;2022-09-01T08:58:24;1.75;;;0.90;;
52614;SDS011;38508;53.158;6.614;2022-09-01T09:00:59;4.03;;;1.10;;
52614;SDS011;38508;53.158;6.614;2022-09-01T09:03:36;4.13;;;0.88;;
52614;SDS011;38508;53.158;6.614;2022-09-01T09:06:33;3.15;;;1.20;;
52614;SDS011;38508;53.158;6.614;2022-09-01T09:09:08;4.70;;;1.10;;
52614;SDS011;38508;53.158;6.614;2022-09-01T09:14:27;2.65;;;0.88;;
52614;SDS011;38508;53.158;6.614;2022-09-01T09:17:10;2.63;;;1.00;;
52614;SDS011;38508;53.158;6.614;2022-09-01T09:19:39;2.97;;;1.00;;
52614;SDS011;38508;53.158;6.614;2022-09-01T09:22:08;3.28;;;0.90;;
52614;SDS011;38508;53.158;6.614;2022-09-01T09:27:24;4.88;;;1.23;;
52614;SDS011;38508;53.158;6.614;2022-09-01T09:32:52;2.75;;;1.10;;
52614;SDS011;38508;53.158;6.614;2022-09-01T09:35:32;2.20;;;0.93;;
52614;SDS011;38508;53.158;6.614;2022-09-01T09:43:27;2.88;;;0.80;;
52614;SDS011;38508;53.158;6.614;2022-09-01T09:51:53;3.20;;;0.63;;
52614;SDS011;38508;53.158;6.614;2022-09-01T09:54:26;3.45;;;0.60;;
52614;SDS011;38508;53.158;6.614;2022-09-01T09:57:09;2.42;;;0.90;;
52614;SDS011;38508;53.158;6.614;2022-09-01T09:59:53;3.53;;;0.90;;
52614;SDS011;38508;53.158;6.614;2022-09-01T10:05:22;3.33;;;0.60;;
52614;SDS011;38508;53.158;6.614;2022-09-01T10:08:04;1.45;;;0.68;;
52614;SDS011;38508;53.158;6.614;2022-09-01T10:10:40;1.98;;;0.77;;
52614;SDS011;38508;53.158;6.614;2022-09-01T10:13:16;6.45;;;0.70;;
52614;SDS011;38508;53.158;6.614;2022-09-01T10:15:48;7.00;;;1.08;;
52614;SDS011;38508;53.158;6.614;2022-09-01T10:18:16;3.22;;;0.73;;
52614;SDS011;38508;53.158;6.614;2022-09-01T10:23:32;1.50;;;0.50;;
52614;SDS011;38508;53.158;6.614;2022-09-01T10:26:14;0.68;;;0.40;;
52614;SDS011;38508;53.158;6.614;2022-09-01T10:28:57;3.42;;;0.50;;
52614;SDS011;38508;53.158;6.614;2022-09-01T10:31:30;1.88;;;0.57;;
52614;SDS011;38508;53.158;6.614;2022-09-01T10:33:56;1.42;;;0.50;;
52614;SDS011;38508;53.158;6.614;2022-09-01T10:36:24;1.63;;;0.60;;
52614;SDS011;38508;53.158;6.614;2022-09-01T10:38:50;2.95;;;0.60;;
52614;SDS011;38508;53.158;6.614;2022-09-01T10:44:12;1.30;;;0.40;;
52614;SDS011;38508;53.158;6.614;2022-09-01T10:46:54;0.82;;;0.40;;
52614;SDS011;38508;53.158;6.614;2022-09-01T10:49:55;4.53;;;0.52;;
52614;SDS011;38508;53.158;6.614;2022-09-01T10:55:07;1.15;;;0.30;;
52614;SDS011;38508;53.158;6.614;2022-09-01T10:57:43;0.93;;;0.43;;
52614;SDS011;38508;53.158;6.614;2022-09-01T11:00:19;1.20;;;0.40;;
52614;SDS011;38508;53.158;6.614;2022-09-01T11:17:09;1.10;;;0.30;;
52614;SDS011;38508;53.158;6.614;2022-09-01T11:21:45;1.00;;;0.30;;
52614;SDS011;38508;53.158;6.614;2022-09-01T11:27:03;1.10;;;0.40;;
52614;SDS011;38508;53.158;6.614;2022-09-01T11:32:26;2.30;;;0.65;;
52614;SDS011;38508;53.158;6.614;2022-09-01T11:34:57;1.27;;;0.65;;
52614;SDS011;38508;53.158;6.614;2022-09-01T11:37:26;1.45;;;0.40;;
52614;SDS011;38508;53.158;6.614;2022-09-01T11:39:57;3.13;;;0.40;;
52614;SDS011;38508;53.158;6.614;2022-09-01T11:42:30;1.38;;;0.47;;
52614;SDS011;38508;53.158;6.614;2022-09-01T11:45:04;1.60;;;0.40;;
52614;SDS011;38508;53.158;6.614;2022-09-01T11:47:39;3.28;;;0.60;;
52614;SDS011;38508;53.158;6.614;2022-09-01T11:52:40;1.02;;;0.43;;
52614;SDS011;38508;53.158;6.614;2022-09-01T11:55:06;1.00;;;0.30;;
52614;SDS011;38508;53.158;6.614;2022-09-01T11:57:35;0.60;;;0.40;;
52614;SDS011;38508;53.158;6.614;2022-09-01T12:00:12;1.13;;;0.50;;
52614;SDS011;38508;53.158;6.614;2022-09-01T12:02:50;0.90;;;0.30;;
52614;SDS011;38508;53.158;6.614;2022-09-01T12:05:52;4.60;;;0.47;;
52614;SDS011;38508;53.158;6.614;2022-09-01T12:08:11;2.85;;;0.30;;
52614;SDS011;38508;53.158;6.614;2022-09-01T12:10:39;1.35;;;0.65;;
52614;SDS011;38508;53.158;6.614;2022-09-01T12:13:16;1.00;;;0.40;;
52614;SDS011;38508;53.158;6.614;2022-09-01T12:15:50;2.97;;;0.30;;
52614;SDS011;38508;53.158;6.614;2022-09-01T12:18:22;2.17;;;0.50;;
52614;SDS011;38508;53.158;6.614;2022-09-01T12:20:52;4.32;;;0.50;;
52614;SDS011;38508;53.158;6.614;2022-09-01T12:25:51;2.38;;;0.40;;
52614;SDS011;38508;53.158;6.614;2022-09-01T12:28:20;1.23;;;0.40;;
52614;SDS011;38508;53.158;6.614;2022-09-01T12:30:47;1.20;;;0.40;;
52614;SDS011;38508;53.158;6.614;2022-09-01T12:33:14;0.95;;;0.40;;
52614;SDS011;38508;53.158;6.614;2022-09-01T12:35:42;2.33;;;0.70;;
52614;SDS011;38508;53.158;6.614;2022-09-01T12:38:42;3.15;;;0.47;;
52614;SDS011;38508;53.158;6.614;2022-09-01T12:41:01;2.35;;;0.40;;
52614;SDS011;38508;53.158;6.614;2022-09-01T12:43:46;0.57;;;0.40;;
52614;SDS011;38508;53.158;6.614;2022-09-01T12:46:38;2.38;;;0.57;;
52614;SDS011;38508;53.158;6.614;2022-09-01T12:49:23;1.52;;;0.50;;
52614;SDS011;38508;53.158;6.614;2022-09-01T12:52:10;1.08;;;0.60;;
52614;SDS011;38508;53.158;6.614;2022-09-01T12:54:37;2.70;;;0.50;;
52614;SDS011;38508;53.158;6.614;2022-09-01T12:57:03;1.50;;;0.40;;
52614;SDS011;38508;53.158;6.614;2022-09-01T12:59:29;5.18;;;0.63;;
52614;SDS011;38508;53.158;6.614;2022-09-01T13:01:55;1.15;;;0.40;;
52614;SDS011;38508;53.158;6.614;2022-09-01T13:07:00;1.27;;;0.40;;
52614;SDS011;38508;53.158;6.614;2022-09-01T13:09:28;2.13;;;0.40;;
52614;SDS011;38508;53.158;6.614;2022-09-01T13:12:07;0.88;;;0.30;;
52614;SDS011;38508;53.158;6.614;2022-09-01T13:14:36;0.70;;;0.25;;
52614;SDS011;38508;53.158;6.614;2022-09-01T13:17:02;1.83;;;0.45;;
52614;SDS011;38508;53.158;6.614;2022-09-01T13:19:28;43.85;;;5.05;;
52614;SDS011;38508;53.158;6.614;2022-09-01T13:21:53;2.40;;;0.50;;
52614;SDS011;38508;53.158;6.614;2022-09-01T13:24:19;2.70;;;0.77;;
52614;SDS011;38508;53.158;6.614;2022-09-01T13:26:44;3.72;;;0.40;;
52614;SDS011;38508;53.158;6.614;2022-09-01T13:29:18;2.30;;;0.43;;
52614;SDS011;38508;53.158;6.614;2022-09-01T13:31:44;4.20;;;0.60;;
52614;SDS011;38508;53.158;6.614;2022-09-01T13:34:10;1.67;;;0.47;;
52614;SDS011;38508;53.158;6.614;2022-09-01T13:36:36;1.75;;;0.45;;
52614;SDS011;38508;53.158;6.614;2022-09-01T13:39:01;1.98;;;0.70;;
52614;SDS011;38508;53.158;6.614;2022-09-01T13:41:27;7.78;;;0.85;;
52614;SDS011;38508;53.158;6.614;2022-09-01T13:43:53;5.47;;;0.80;;
52614;SDS011;38508;53.158;6.614;2022-09-01T13:46:21;1.80;;;0.40;;
52614;SDS011;38508;53.158;6.614;2022-09-01T13:48:46;2.42;;;0.40;;
52614;SDS011;38508;53.158;6.614;2022-09-01T13:51:12;3.80;;;0.60;;
52614;SDS011;38508;53.158;6.614;2022-09-01T13:53:50;4.03;;;0.50;;
52614;SDS011;38508;53.158;6.614;2022-09-01T13:56:16;4.03;;;0.60;;
52614;SDS011;38508;53.158;6.614;2022-09-01T13:58:41;1.67;;;0.43;;
52614;SDS011;38508;53.158;6.614;2022-09-01T14:01:07;2.10;;;0.40;;
52614;SDS011;38508;53.158;6.614;2022-09-01T14:03:33;1.17;;;0.60;;
52614;SDS011;38508;53.158;6.614;2022-09-01T14:05:58;4.07;;;0.40;;
52614;SDS011;38508;53.158;6.614;2022-09-01T14:08:24;2.17;;;0.50;;
52614;SDS011;38508;53.158;6.614;2022-09-01T14:10:51;6.50;;;0.50;;
52614;SDS011;38508;53.158;6.614;2022-09-01T14:13:18;2.80;;;0.32;;
52614;SDS011;38508;53.158;6.614;2022-09-01T14:15:45;2.92;;;0.55;;
52614;SDS011;38508;53.158;6.614;2022-09-01T14:18:12;2.05;;;0.30;;
52614;SDS011;38508;53.158;6.614;2022-09-01T14:20:41;0.88;;;0.40;;
52614;SDS011;38508;53.158;6.614;2022-09-01T14:23:09;0.65;;;0.30;;
52614;SDS011;38508;53.158;6.614;2022-09-01T14:25:36;2.00;;;0.38;;
52614;SDS011;38508;53.158;6.614;2022-09-01T14:28:06;2.70;;;0.40;;
52614;SDS011;38508;53.158;6.614;2022-09-01T14:30:32;2.40;;;0.50;;
52614;SDS011;38508;53.158;6.614;2022-09-01T14:32:58;2.03;;;0.57;;
52614;SDS011;38508;53.158;6.614;2022-09-01T14:35:25;5.88;;;0.63;;
52614;SDS011;38508;53.158;6.614;2022-09-01T14:37:51;1.13;;;0.30;;
52614;SDS011;38508;53.158;6.614;2022-09-01T14:40:18;2.05;;;0.50;;
52614;SDS011;38508;53.158;6.614;2022-09-01T14:42:46;1.38;;;0.40;;
52614;SDS011;38508;53.158;6.614;2022-09-01T14:45:14;1.60;;;0.40;;
52614;SDS011;38508;53.158;6.614;2022-09-01T14:47:42;2.65;;;0.70;;
52614;SDS011;38508;53.158;6.614;2022-09-01T14:50:09;4.15;;;0.60;;
52614;SDS011;38508;53.158;6.614;2022-09-01T14:52:36;4.63;;;0.45;;
52614;SDS011;38508;53.158;6.614;2022-09-01T14:55:02;1.58;;;0.35;;
52614;SDS011;38508;53.158;6.614;2022-09-01T14:57:29;2.45;;;0.30;;
52614;SDS011;38508;53.158;6.614;2022-09-01T14:59:57;0.90;;;0.20;;
52614;SDS011;38508;53.158;6.614;2022-09-01T15:02:23;2.42;;;0.30;;
52614;SDS011;38508;53.158;6.614;2022-09-01T15:04:49;1.70;;;0.30;;
52614;SDS011;38508;53.158;6.614;2022-09-01T15:07:15;1.08;;;0.30;;
52614;SDS011;38508;53.158;6.614;2022-09-01T15:09:41;1.67;;;0.30;;
52614;SDS011;38508;53.158;6.614;2022-09-01T15:12:07;1.67;;;0.30;;
52614;SDS011;38508;53.158;6.614;2022-09-01T15:14:33;3.25;;;0.40;;
52614;SDS011;38508;53.158;6.614;2022-09-01T15:17:00;2.25;;;0.40;;
52614;SDS011;38508;53.158;6.614;2022-09-01T15:19:26;0.45;;;0.25;;
52614;SDS011;38508;53.158;6.614;2022-09-01T15:21:52;0.70;;;0.20;;
52614;SDS011;38508;53.158;6.614;2022-09-01T15:24:17;2.05;;;0.40;;
52614;SDS011;38508;53.158;6.614;2022-09-01T15:26:43;3.00;;;0.30;;
52614;SDS011;38508;53.158;6.614;2022-09-01T15:29:11;1.17;;;0.20;;
52614;SDS011;38508;53.158;6.614;2022-09-01T15:31:39;1.02;;;0.40;;
52614;SDS011;38508;53.158;6.614;2022-09-01T15:34:06;2.13;;;0.45;;
52614;SDS011;38508;53.158;6.614;2022-09-01T15:36:34;2.92;;;0.30;;
52614;SDS011;38508;53.158;6.614;2022-09-01T15:39:03;0.90;;;0.35;;
52614;SDS011;38508;53.158;6.614;2022-09-01T15:41:30;3.45;;;0.47;;
52614;SDS011;38508;53.158;6.614;2022-09-01T15:43:57;1.27;;;0.40;;
52614;SDS011;38508;53.158;6.614;2022-09-01T15:46:24;1.27;;;0.40;;
52614;SDS011;38508;53.158;6.614;2022-09-01T15:48:59;0.80;;;0.30;;
52614;SDS011;38508;53.158;6.614;2022-09-01T15:51:32;1.00;;;0.40;;
52614;SDS011;38508;53.158;6.614;2022-09-01T15:54:00;2.58;;;0.30;;
52614;SDS011;38508;53.158;6.614;2022-09-01T15:56:29;2.72;;;0.30;;
52614;SDS011;38508;53.158;6.614;2022-09-01T15:58:55;4.57;;;0.57;;
52614;SDS011;38508;53.158;6.614;2022-09-01T16:01:23;3.63;;;0.50;;
52614;SDS011;38508;53.158;6.614;2022-09-01T16:03:49;1.17;;;0.20;;
52614;SDS011;38508;53.158;6.614;2022-09-01T16:06:15;2.05;;;0.30;;
52614;SDS011;38508;53.158;6.614;2022-09-01T16:08:41;3.38;;;0.40;;
52614;SDS011;38508;53.158;6.614;2022-09-01T16:11:07;3.92;;;0.40;;